createdAt,value
2023-02-15T00:02:02.156Z,22.77
2023-02-15T00:04:47.342Z,19.10
2023-02-15T00:07:16.152Z,21.95
2023-02-15T00:09:42.938Z,20.60
2023-02-15T00:12:11.126Z,19.50
2023-02-15T00:14:38.104Z,17.55
2023-02-15T00:17:05.150Z,20.65
2023-02-15T00:19:31.844Z,18.55
2023-02-15T00:21:58.623Z,20.40
2023-02-15T00:24:25.507Z,20.45
2023-02-15T00:26:52.321Z,19.35
2023-02-15T00:29:20.355Z,20.27
2023-02-15T00:31:47.598Z,18.73
2023-02-15T00:34:16.859Z,18.08
2023-02-15T00:36:44.318Z,18.70
2023-02-15T00:39:11.442Z,25.83
2023-02-15T00:41:38.442Z,18.10
2023-02-15T00:44:05.760Z,18.63
2023-02-15T00:46:33.025Z,21.13
2023-02-15T00:48:59.776Z,18.63
2023-02-15T00:51:26.862Z,19.10
2023-02-15T00:53:53.724Z,17.83
2023-02-15T00:56:20.603Z,20.33
2023-02-15T00:58:47.270Z,31.98
2023-02-15T01:01:16.708Z,29.50
2023-02-15T01:06:10.922Z,17.90
2023-02-15T01:08:38.021Z,18.25
2023-02-15T01:11:10.109Z,19.63
2023-02-15T01:13:37.085Z,20.08
2023-02-15T01:16:05.524Z,19.77
2023-02-15T01:18:33.180Z,22.25
2023-02-15T01:21:00.111Z,18.67
2023-02-15T01:23:26.863Z,27.15
2023-02-15T01:25:53.584Z,24.80
2023-02-15T01:28:20.272Z,18.48
2023-02-15T01:30:47.108Z,22.02
2023-02-15T01:33:18.955Z,19.48
2023-02-15T01:35:47.253Z,19.50
2023-02-15T01:38:16.113Z,18.08
2023-02-15T01:40:42.997Z,18.67
2023-02-15T01:43:13.221Z,19.23
2023-02-15T01:45:40.681Z,18.55
2023-02-15T01:48:13.151Z,23.20
2023-02-15T01:50:43.716Z,18.67
2023-02-15T01:53:27.133Z,19.15
2023-02-15T01:56:00.993Z,21.20
2023-02-15T01:58:30.164Z,19.38
2023-02-15T02:01:00.276Z,19.58
2023-02-15T02:03:54.540Z,19.17
2023-02-15T02:06:22.104Z,19.75
2023-02-15T02:08:49.327Z,21.08
2023-02-15T02:11:16.473Z,19.40
2023-02-15T02:13:44.781Z,19.52
2023-02-15T02:16:17.228Z,20.67
2023-02-15T02:18:52.908Z,19.38
2023-02-15T02:22:05.128Z,19.42
2023-02-15T02:24:37.890Z,21.92
2023-02-15T02:27:29.657Z,19.02
2023-02-15T02:30:39.171Z,19.55
2023-02-15T02:33:21.662Z,21.15
2023-02-15T02:36:04.095Z,21.58
2023-02-15T02:38:40.055Z,21.05
2023-02-15T02:41:26.461Z,20.02
2023-02-15T02:44:05.455Z,27.90
2023-02-15T02:46:40.752Z,24.75
2023-02-15T02:49:07.505Z,26.70
2023-02-15T02:51:34.150Z,24.05
2023-02-15T02:54:02.452Z,25.73
2023-02-15T02:56:37.359Z,26.27
2023-02-15T02:59:18.049Z,25.88
2023-02-15T03:01:54.667Z,24.60
2023-02-15T03:04:28.669Z,23.90
2023-02-15T03:06:59.747Z,22.90
2023-02-15T03:09:42.567Z,20.27
2023-02-15T03:12:24.552Z,23.15
2023-02-15T03:14:57.277Z,22.52
2023-02-15T03:17:24.982Z,20.50
2023-02-15T03:19:53.330Z,20.92
2023-02-15T03:22:23.920Z,20.75
2023-02-15T03:25:08.149Z,21.38
2023-02-15T03:27:38.362Z,25.95
2023-02-15T03:30:08.164Z,23.52
2023-02-15T03:32:35.630Z,21.35
2023-02-15T03:35:02.730Z,19.48
2023-02-15T03:37:32.285Z,20.50
2023-02-15T03:43:24.556Z,18.20
2023-02-15T03:45:57.854Z,20.42
2023-02-15T03:48:33.768Z,18.25
2023-02-15T03:51:25.647Z,19.20
2023-02-15T03:53:52.910Z,19.13
2023-02-15T03:56:19.611Z,18.08
2023-02-15T03:59:05.010Z,18.65
2023-02-15T04:02:06.185Z,18.48
2023-02-15T04:04:36.428Z,22.15
2023-02-15T04:07:04.929Z,18.13
2023-02-15T04:09:50.409Z,20.30
2023-02-15T04:12:17.245Z,18.52
2023-02-15T04:15:02.766Z,18.65
2023-02-15T04:17:29.504Z,20.00
2023-02-15T04:20:14.653Z,21.10
2023-02-15T04:23:00.029Z,28.00
2023-02-15T04:25:26.876Z,23.42
2023-02-15T04:27:55.306Z,21.83
2023-02-15T04:30:24.908Z,24.77
2023-02-15T04:32:52.250Z,23.30
2023-02-15T04:35:19.024Z,18.55
2023-02-15T04:37:45.807Z,21.92
2023-02-15T04:40:14.354Z,19.80
2023-02-15T04:42:41.135Z,26.02
2023-02-15T04:45:08.286Z,18.48
2023-02-15T04:47:35.065Z,20.15
2023-02-15T04:50:01.850Z,20.33
2023-02-15T04:52:28.612Z,19.63
2023-02-15T04:54:55.298Z,19.92
2023-02-15T04:57:22.066Z,41.97
2023-02-15T04:59:48.726Z,24.30
2023-02-15T05:02:15.500Z,26.80
2023-02-15T05:04:42.249Z,43.63
2023-02-15T05:07:08.975Z,30.92
2023-02-15T05:09:35.746Z,41.78
2023-02-15T05:12:02.407Z,32.58
2023-02-15T05:14:29.136Z,34.38
2023-02-15T05:16:55.912Z,29.17
2023-02-15T05:19:25.550Z,24.63
2023-02-15T05:24:37.698Z,31.60
2023-02-15T05:27:23.385Z,27.40
2023-02-15T05:29:50.075Z,28.55
2023-02-15T05:32:16.944Z,35.17
2023-02-15T05:34:43.651Z,25.85
2023-02-15T05:37:10.379Z,34.42
2023-02-15T05:39:37.016Z,42.08
2023-02-15T05:42:03.935Z,26.67
2023-02-15T05:44:30.770Z,52.13
2023-02-15T05:46:57.414Z,24.40
2023-02-15T05:49:24.127Z,25.13
2023-02-15T05:51:50.768Z,34.55
2023-02-15T05:54:17.482Z,30.02
2023-02-15T05:56:44.122Z,23.67
2023-02-15T05:59:10.794Z,22.80
2023-02-15T06:01:37.420Z,30.05
2023-02-15T06:04:04.155Z,22.88
2023-02-15T06:06:30.838Z,25.48
2023-02-15T06:08:57.539Z,19.98
2023-02-15T06:11:24.257Z,19.80
2023-02-15T06:13:50.890Z,23.33
2023-02-15T06:16:17.743Z,21.75
2023-02-15T06:18:44.504Z,29.65
2023-02-15T06:21:11.173Z,34.28
2023-02-15T06:23:37.870Z,37.55
2023-02-15T06:26:04.792Z,28.85
2023-02-15T06:28:31.923Z,36.75
2023-02-15T06:30:58.720Z,27.45
2023-02-15T06:33:25.402Z,21.42
2023-02-15T06:35:52.269Z,28.77
2023-02-15T06:38:19.373Z,32.33
2023-02-15T06:40:46.068Z,26.73
2023-02-15T06:43:12.717Z,32.72
2023-02-15T06:45:39.434Z,28.67
2023-02-15T06:48:08.018Z,31.88
2023-02-15T06:50:35.426Z,32.28
2023-02-15T06:53:02.173Z,24.35
2023-02-15T06:55:28.928Z,30.33
2023-02-15T06:57:55.635Z,25.35
2023-02-15T07:00:24.076Z,26.23
2023-02-15T07:02:58.764Z,24.30
2023-02-15T07:05:31.608Z,23.92
2023-02-15T07:08:01.438Z,30.63
2023-02-15T07:10:28.791Z,20.77
2023-02-15T07:12:55.546Z,18.83
2023-02-15T07:15:22.559Z,26.17
2023-02-15T07:17:50.262Z,17.17
2023-02-15T07:20:19.940Z,24.73
2023-02-15T07:22:46.960Z,32.55
2023-02-15T07:25:14.076Z,24.00
2023-02-15T07:27:41.603Z,21.73
2023-02-15T07:30:10.876Z,16.48
2023-02-15T07:32:37.721Z,19.92
2023-02-15T07:35:04.567Z,29.92
2023-02-15T07:37:31.419Z,36.03
2023-02-15T07:39:58.181Z,21.58
2023-02-15T07:42:24.793Z,33.03
2023-02-15T07:44:51.803Z,27.58
2023-02-15T07:47:18.563Z,36.45
2023-02-15T07:49:45.750Z,21.50
2023-02-15T07:52:12.452Z,24.13
2023-02-15T07:54:39.234Z,22.52
2023-02-15T07:57:05.899Z,23.23
2023-02-15T07:59:32.992Z,30.52
2023-02-15T08:01:59.904Z,30.50
2023-02-15T08:04:26.694Z,25.98
2023-02-15T08:06:55.258Z,20.67
2023-02-15T08:09:22.113Z,21.95
2023-02-15T08:11:49.105Z,18.17
2023-02-15T08:14:18.119Z,31.70
2023-02-15T08:16:50.157Z,25.00
2023-02-15T08:19:21.143Z,26.63
2023-02-15T08:21:50.525Z,21.42
2023-02-15T08:24:19.893Z,25.45
2023-02-15T08:26:47.890Z,32.72
2023-02-15T08:29:15.922Z,23.55
2023-02-15T08:31:43.232Z,20.83
2023-02-15T08:34:12.546Z,17.45
2023-02-15T08:36:39.300Z,37.90
2023-02-15T08:39:07.376Z,26.60
2023-02-15T08:41:35.958Z,22.10
2023-02-15T08:44:08.115Z,31.73
2023-02-15T08:46:40.762Z,28.55
2023-02-15T08:49:07.870Z,49.08
2023-02-15T08:51:37.589Z,28.48
2023-02-15T08:54:10.556Z,33.08
2023-02-15T08:56:39.814Z,20.33
2023-02-15T08:59:07.922Z,17.85
2023-02-15T09:01:35.700Z,19.05
2023-02-15T09:04:09.670Z,137.18
2023-02-15T09:06:38.425Z,63.05
2023-02-15T09:09:06.084Z,59.53
2023-02-15T09:11:36.688Z,39.35
2023-02-15T09:14:15.379Z,23.10
2023-02-15T09:16:45.868Z,57.45
2023-02-15T09:19:13.011Z,38.97
2023-02-15T09:21:40.250Z,24.33
2023-02-15T09:24:10.136Z,28.20
2023-02-15T09:26:41.586Z,20.38
2023-02-15T09:29:10.441Z,49.35
2023-02-15T09:31:45.575Z,30.02
2023-02-15T09:34:18.141Z,25.73
2023-02-15T09:36:45.568Z,19.55
2023-02-15T09:39:25.900Z,22.83
2023-02-15T09:41:52.651Z,26.92
2023-02-15T09:44:33.189Z,18.23
2023-02-15T09:47:21.791Z,19.90
2023-02-15T09:50:10.366Z,21.55
2023-02-15T09:53:01.043Z,31.58
2023-02-15T09:55:51.053Z,45.05
2023-02-15T09:58:31.844Z,23.80
2023-02-15T10:01:01.977Z,21.27
2023-02-15T10:03:52.421Z,29.77
2023-02-15T10:06:32.175Z,18.38
2023-02-15T10:09:37.451Z,20.42
2023-02-15T10:12:16.898Z,23.13
2023-02-15T10:15:12.727Z,21.40
2023-02-15T10:18:14.438Z,25.20
2023-02-15T10:20:51.151Z,22.85
2023-02-15T10:23:39.004Z,26.88
2023-02-15T10:28:45.018Z,28.27
2023-02-15T10:31:34.743Z,18.33
2023-02-15T10:34:19.965Z,36.17
2023-02-15T10:37:23.433Z,58.65
2023-02-15T10:40:05.741Z,32.45
2023-02-15T10:43:13.853Z,24.98
2023-02-15T10:46:17.583Z,30.50
2023-02-15T10:49:04.611Z,24.30
2023-02-15T10:51:53.892Z,28.55
2023-02-15T10:54:29.504Z,22.60
2023-02-15T10:57:21.313Z,24.48
2023-02-15T11:00:00.661Z,21.95
2023-02-15T11:02:57.449Z,23.48
2023-02-15T11:05:41.213Z,27.92
2023-02-15T11:08:10.834Z,25.02
2023-02-15T11:10:52.838Z,40.05
2023-02-15T11:13:20.817Z,41.88
2023-02-15T11:15:52.971Z,26.10
2023-02-15T11:18:33.434Z,18.65
2023-02-15T11:21:03.233Z,26.83
2023-02-15T11:23:30.589Z,21.85
2023-02-15T11:26:02.498Z,16.50
2023-02-15T11:28:34.351Z,18.35
2023-02-15T11:31:10.661Z,23.48
2023-02-15T11:33:40.857Z,23.35
2023-02-15T11:36:18.251Z,26.65
2023-02-15T11:38:46.067Z,29.17
2023-02-15T11:41:16.165Z,33.20
2023-02-15T11:43:51.185Z,28.23
2023-02-15T11:46:19.873Z,26.33
2023-02-15T11:48:46.618Z,31.27
2023-02-15T11:51:17.127Z,31.13
2023-02-15T11:53:44.857Z,43.47
2023-02-15T11:56:19.578Z,31.35
2023-02-15T11:58:52.539Z,24.63
2023-02-15T12:01:31.634Z,30.85
2023-02-15T12:04:07.234Z,40.17
2023-02-15T12:06:37.110Z,24.05
2023-02-15T12:09:13.709Z,51.00
2023-02-15T12:11:41.781Z,29.85
2023-02-15T12:14:10.434Z,22.30
2023-02-15T12:16:52.161Z,27.65
2023-02-15T12:19:32.847Z,32.58
2023-02-15T12:22:00.845Z,33.70
2023-02-15T12:24:31.173Z,31.08
2023-02-15T12:27:18.442Z,40.30
2023-02-15T12:30:05.450Z,24.90
2023-02-15T12:32:35.558Z,27.30
2023-02-15T12:35:14.863Z,24.77
2023-02-15T12:37:53.938Z,25.77
2023-02-15T12:40:27.851Z,30.30
2023-02-15T12:42:55.654Z,40.63
2023-02-15T12:45:34.086Z,31.70
2023-02-15T12:48:13.389Z,24.27
2023-02-15T12:50:41.426Z,30.73
2023-02-15T12:53:20.178Z,26.70
2023-02-15T12:55:58.730Z,32.53
2023-02-15T12:58:27.603Z,25.70
2023-02-15T13:01:22.339Z,37.83
2023-02-15T13:03:59.677Z,36.90
2023-02-15T13:06:32.504Z,28.02
2023-02-15T13:09:07.779Z,28.25
2023-02-15T13:11:38.513Z,24.95
2023-02-15T13:14:21.961Z,28.42
2023-02-15T13:16:51.668Z,45.08
2023-02-15T13:19:18.385Z,25.58
2023-02-15T13:21:49.905Z,30.65
2023-02-15T13:24:26.109Z,29.45
2023-02-15T13:27:01.024Z,25.13
2023-02-15T13:29:38.156Z,29.50
2023-02-15T13:32:16.286Z,25.05
2023-02-15T13:34:42.976Z,29.77
2023-02-15T13:37:23.237Z,26.50
2023-02-15T13:40:03.565Z,26.73
2023-02-15T13:42:41.027Z,32.65
2023-02-15T13:45:26.011Z,34.78
2023-02-15T13:47:58.681Z,23.38
2023-02-15T13:50:30.088Z,34.35
2023-02-15T13:53:08.409Z,35.92
2023-02-15T13:55:41.715Z,41.92
2023-02-15T13:58:27.056Z,33.25
2023-02-15T14:01:17.721Z,28.58
2023-02-15T14:04:05.662Z,33.85
2023-02-15T14:06:45.486Z,27.40
2023-02-15T14:09:43.761Z,25.55
2023-02-15T14:12:45.498Z,26.45
2023-02-15T14:15:36.265Z,23.92
2023-02-15T14:18:25.493Z,35.53
2023-02-15T14:21:08.231Z,48.22
2023-02-15T14:24:09.809Z,32.67
2023-02-15T14:27:04.160Z,34.45
2023-02-15T14:29:49.045Z,30.08
2023-02-15T14:32:29.300Z,32.10
2023-02-15T14:35:03.557Z,36.78
2023-02-15T14:37:38.935Z,27.83
2023-02-15T14:43:21.268Z,27.92
2023-02-15T14:46:08.133Z,28.65
2023-02-15T14:48:43.991Z,35.30
2023-02-15T14:51:11.197Z,34.22
2023-02-15T14:53:40.016Z,53.38
2023-02-15T14:56:21.621Z,45.72
2023-02-15T15:01:14.867Z,48.75
2023-02-15T15:03:51.184Z,38.75
2023-02-15T15:06:39.409Z,37.78
2023-02-15T15:09:28.187Z,22.90
2023-02-15T15:11:56.593Z,32.42
2023-02-15T15:14:35.347Z,28.17
2023-02-15T15:17:03.656Z,25.40
2023-02-15T15:19:51.999Z,30.80
2023-02-15T15:22:23.542Z,31.65
2023-02-15T15:24:54.739Z,45.13
2023-02-15T15:27:44.692Z,34.80
2023-02-15T15:30:14.267Z,46.15
2023-02-15T15:32:56.144Z,54.60
2023-02-15T15:35:38.057Z,59.50
2023-02-15T15:38:32.324Z,41.47
2023-02-15T15:41:01.777Z,64.97
2023-02-15T15:43:54.683Z,75.45
2023-02-15T15:46:48.577Z,53.00
2023-02-15T15:51:49.666Z,53.22
2023-02-15T15:54:24.689Z,74.78
2023-02-15T15:56:58.129Z,119.30
2023-02-15T15:59:27.658Z,221.20
2023-02-15T16:01:54.738Z,138.05
2023-02-15T16:04:30.108Z,96.20
2023-02-15T16:06:58.678Z,96.25
2023-02-15T16:09:30.197Z,86.75
2023-02-15T16:12:02.881Z,86.88
2023-02-15T16:14:36.541Z,97.22
2023-02-15T16:17:06.279Z,102.43
2023-02-15T16:19:39.398Z,86.20
2023-02-15T16:22:12.564Z,95.35
2023-02-15T16:24:46.682Z,74.70
2023-02-15T16:27:21.009Z,77.75
2023-02-15T16:29:47.772Z,71.13
2023-02-15T16:32:25.757Z,56.78
2023-02-15T16:35:00.958Z,60.30
2023-02-15T16:37:32.094Z,56.47
2023-02-15T16:39:58.785Z,53.75
2023-02-15T16:42:26.306Z,35.42
2023-02-15T16:45:02.246Z,39.63
2023-02-15T16:47:30.989Z,33.33
2023-02-15T16:50:00.149Z,45.30
2023-02-15T16:52:28.060Z,35.42
2023-02-15T16:55:00.132Z,38.35
2023-02-15T16:57:34.831Z,43.78
2023-02-15T17:00:06.147Z,42.50
2023-02-15T17:02:55.241Z,33.42
2023-02-15T17:05:22.012Z,35.38
2023-02-15T17:08:07.550Z,35.42
2023-02-15T17:10:39.940Z,32.72
2023-02-15T17:13:12.649Z,44.72
2023-02-15T17:15:45.024Z,55.67
2023-02-15T17:18:18.871Z,41.75
2023-02-15T17:20:47.224Z,45.80
2023-02-15T17:23:52.865Z,47.97
2023-02-15T17:26:30.750Z,50.65
2023-02-15T17:29:00.127Z,69.45
2023-02-15T17:31:32.317Z,53.35
2023-02-15T17:34:00.517Z,100.78
2023-02-15T17:36:30.424Z,90.40
2023-02-15T17:39:03.351Z,89.18
2023-02-15T17:41:38.314Z,80.35
2023-02-15T17:44:05.546Z,54.47
2023-02-15T17:46:36.089Z,55.75
2023-02-15T17:49:03.271Z,59.50
2023-02-15T17:51:30.604Z,48.83
2023-02-15T17:54:15.954Z,63.70
2023-02-15T17:56:43.025Z,52.40
2023-02-15T17:59:11.569Z,62.55
2023-02-15T18:02:08.613Z,65.00
2023-02-15T18:04:55.978Z,55.05
2023-02-15T18:07:41.555Z,52.53
2023-02-15T18:10:34.960Z,55.03
2023-02-15T18:13:01.797Z,51.78
2023-02-15T18:15:28.763Z,54.13
2023-02-15T18:17:55.993Z,56.00
2023-02-15T18:20:27.300Z,60.05
2023-02-15T18:22:54.675Z,44.67
2023-02-15T18:25:24.320Z,56.97
2023-02-15T18:27:53.337Z,56.75
2023-02-15T18:30:23.512Z,53.80
2023-02-15T18:32:52.660Z,53.67
2023-02-15T18:35:22.398Z,51.28
2023-02-15T18:37:49.935Z,52.22
2023-02-15T18:40:18.861Z,52.63
2023-02-15T18:42:48.119Z,54.63
2023-02-15T18:45:18.960Z,61.30
2023-02-15T18:47:46.254Z,63.63
2023-02-15T18:50:18.345Z,68.03
2023-02-15T18:52:51.289Z,89.53
2023-02-15T18:55:23.501Z,78.28
2023-02-15T18:57:51.599Z,81.53
2023-02-15T19:00:21.531Z,71.78
2023-02-15T19:02:48.609Z,82.72
2023-02-15T19:05:16.208Z,72.15
2023-02-15T19:07:45.407Z,84.03
2023-02-15T19:10:16.764Z,94.95
2023-02-15T19:12:43.873Z,93.03
2023-02-15T19:15:18.754Z,92.35
2023-02-15T19:17:45.614Z,88.28
2023-02-15T19:20:26.355Z,84.65
2023-02-15T19:22:53.955Z,74.68
2023-02-15T19:25:22.941Z,67.03
2023-02-15T19:27:49.800Z,76.78
2023-02-15T19:30:23.216Z,62.67
2023-02-15T19:32:50.320Z,77.72
2023-02-15T19:35:21.885Z,88.68
2023-02-15T19:37:50.791Z,74.65
2023-02-15T19:40:43.698Z,83.30
2023-02-15T19:43:19.317Z,83.15
2023-02-15T19:45:46.524Z,77.53
2023-02-15T19:48:14.847Z,96.68
2023-02-15T19:50:43.636Z,111.88
2023-02-15T19:53:27.020Z,87.80
2023-02-15T19:55:54.632Z,97.63
2023-02-15T19:58:22.165Z,98.82
2023-02-15T20:00:50.818Z,112.35
2023-02-15T20:03:17.597Z,107.55
2023-02-15T20:05:44.931Z,105.40
2023-02-15T20:08:22.523Z,111.97
2023-02-15T20:10:49.738Z,102.28
2023-02-15T20:13:18.510Z,113.63
2023-02-15T20:15:45.973Z,102.80
2023-02-15T20:18:13.070Z,98.43
2023-02-15T20:20:44.326Z,67.57
2023-02-15T20:23:37.085Z,84.22
2023-02-15T20:26:17.553Z,90.50
2023-02-15T20:28:45.795Z,81.97
2023-02-15T20:31:16.604Z,80.43
2023-02-15T20:33:43.544Z,75.10
2023-02-15T20:36:15.487Z,107.25
2023-02-15T20:38:42.642Z,106.80
2023-02-15T20:41:33.572Z,112.70
2023-02-15T20:44:00.497Z,110.18
2023-02-15T20:46:27.335Z,89.88
2023-02-15T20:48:54.122Z,72.53
2023-02-15T20:51:21.898Z,70.43
2023-02-15T20:53:48.866Z,75.72
2023-02-15T20:56:25.037Z,74.22
2023-02-15T20:58:52.711Z,64.75
2023-02-15T21:01:22.552Z,72.30
2023-02-15T21:03:49.706Z,67.75
2023-02-15T21:06:17.369Z,72.03
2023-02-15T21:08:44.067Z,74.18
2023-02-15T21:11:21.668Z,60.85
2023-02-15T21:13:49.837Z,58.30
2023-02-15T21:16:17.178Z,62.05
2023-02-15T21:18:43.976Z,61.45
2023-02-15T21:21:16.175Z,60.30
2023-02-15T21:23:44.225Z,69.78
2023-02-15T21:26:19.462Z,91.00
2023-02-15T21:28:46.919Z,81.95
2023-02-15T21:31:19.306Z,72.57
2023-02-15T21:33:46.040Z,70.65
2023-02-15T21:36:17.775Z,96.25
2023-02-15T21:38:44.902Z,86.47
2023-02-15T21:41:38.091Z,77.97
2023-02-15T21:44:36.472Z,86.70
2023-02-15T21:47:21.687Z,77.38
2023-02-15T21:49:48.380Z,76.70
2023-02-15T21:52:17.424Z,79.45
2023-02-15T21:54:44.124Z,85.90
2023-02-15T21:57:14.141Z,87.63
2023-02-15T21:59:42.523Z,89.70
2023-02-15T22:02:26.771Z,90.90
2023-02-15T22:04:53.762Z,93.90
2023-02-15T22:07:20.529Z,89.32
2023-02-15T22:09:47.584Z,102.28
2023-02-15T22:12:18.702Z,89.65
2023-02-15T22:14:49.318Z,86.53
2023-02-15T22:17:19.108Z,82.82
2023-02-15T22:19:47.154Z,82.25
2023-02-15T22:22:14.479Z,84.13
2023-02-15T22:24:41.670Z,77.22
2023-02-15T22:27:25.737Z,83.20
2023-02-15T22:29:52.847Z,75.78
2023-02-15T22:32:24.585Z,83.65
2023-02-15T22:34:52.451Z,75.72
2023-02-15T22:37:19.214Z,89.32
2023-02-15T22:39:45.937Z,75.90
2023-02-15T22:42:27.509Z,84.68
2023-02-15T22:44:55.728Z,77.43
2023-02-15T22:47:24.566Z,61.65
2023-02-15T22:49:51.774Z,62.78
2023-02-15T22:52:18.949Z,66.45
2023-02-15T22:54:45.997Z,76.82
2023-02-15T22:57:32.135Z,69.95
2023-02-15T23:00:00.690Z,70.47
2023-02-15T23:02:27.388Z,71.13
2023-02-15T23:04:54.135Z,70.00
2023-02-15T23:07:23.071Z,63.90
2023-02-15T23:09:51.188Z,76.18
2023-02-15T23:12:23.836Z,65.68
2023-02-15T23:14:50.972Z,65.28
2023-02-15T23:17:17.981Z,72.57
2023-02-15T23:19:44.817Z,73.32
2023-02-15T23:22:16.280Z,63.40
2023-02-15T23:24:43.336Z,64.05
2023-02-15T23:27:35.524Z,68.43
2023-02-15T23:30:05.021Z,64.88
2023-02-15T23:32:32.136Z,64.35
2023-02-15T23:34:59.118Z,63.20
2023-02-15T23:37:25.834Z,60.63
2023-02-15T23:40:10.993Z,65.05
2023-02-15T23:42:38.098Z,66.55
2023-02-15T23:45:06.970Z,73.82
2023-02-15T23:47:53.752Z,82.20
2023-02-15T23:50:22.354Z,78.20
2023-02-15T23:52:50.446Z,85.82
2023-02-15T23:55:17.965Z,88.10
2023-02-15T23:57:45.714Z,82.18
